Time;durP1;ratioP1;P1;durP2;ratioP2;P2;SDS_P1;SDS_P2;PMS_P1;PMS_P2;Temp;Humidity;BMP_temperature;BMP_pressure;BME280_temperature;BME280_humidity;BME280_pressure;Samples;Min_cycle;Max_cycle;Signal;HPM_P1;HPM_P2
2021/12/28 00:00:23;;;;;;;;;;;4.10;99.90;;;;;;4960458;28;19922;-90
2021/12/28 00:02:54;;;;;;;;;;;4.60;99.90;;;;;;4945484;28;19922;-90
2021/12/28 00:05:22;;;;;;;;;;;5.20;99.90;;;;;;4943933;28;19922;-90
2021/12/28 00:07:53;;;;;;;;;;;5.10;99.90;;;;;;4960749;28;20373;-89
2021/12/28 00:13:07;;;;;;;;;;;5.10;99.90;;;;;;4962790;28;20378;-89
2021/12/28 00:15:47;;;;;;;;;;;4.70;99.90;;;;;;4944068;28;20025;-90
2021/12/28 00:18:21;;;;;;;;;;;5.00;99.90;;;;;;4949654;28;20362;-88
2021/12/28 00:20:57;;;;;;;;;;;4.50;99.90;;;;;;4964280;28;20329;-89
2021/12/28 00:23:35;;;;;;;;;;;;;;;;;;;;;
2021/12/28 00:26:14;;;;;;;;;;;3.20;99.90;;;;;;4964596;28;19976;-90
2021/12/28 00:28:42;;;;;;;;;;;5.10;99.90;;;;;;4949198;28;19964;-90
2021/12/28 00:31:15;;;;;;;;;;;4.30;99.90;;;;;;4947548;28;19957;-89
2021/12/28 00:33:58;;;;;;;;;;;;;;;;;;;;;
2021/12/28 00:36:24;;;;;;;;;;;4.70;99.90;;;;;;4964643;28;19926;-90
2021/12/28 00:38:50;;;;;;;;;;;4.80;99.90;;;;;;4947535;28;19968;-90
2021/12/28 00:41:20;;;;;;;;;;;4.40;99.90;;;;;;4968883;28;20330;-89
2021/12/28 00:43:53;;;;;;;;;;;4.70;99.90;;;;;;4951931;28;19926;-89
2021/12/28 00:46:30;;;;;;;;;;;4.00;99.90;;;;;;4963113;28;19948;-90
2021/12/28 00:49:01;;;;;;;;;;;4.60;99.90;;;;;;4963203;28;19921;-88
2021/12/28 00:51:31;;;;;;;;;;;4.50;99.90;;;;;;4979038;28;19922;-89
2021/12/28 00:53:59;;;;;;;;;;;4.90;99.90;;;;;;4947249;28;20008;-89
2021/12/28 00:56:25;;;;;;;;;;;4.30;99.90;;;;;;4962961;28;19949;-89
2021/12/28 00:59:00;;;;;;;;;;;4.30;99.90;;;;;;4963154;28;19941;-91
2021/12/28 01:01:28;;;;;;;;;;;4.40;99.90;;;;;;4947577;28;19922;-90
2021/12/28 01:04:01;;;;;;;;;;;5.80;99.90;;;;;;4962800;28;19973;-90
2021/12/28 01:06:37;;;;;;;;;;;;;;;;;;;;;
2021/12/28 01:09:29;;;;;;;;;;;5.30;99.90;;;;;;4963910;28;20290;-90
2021/12/28 01:11:55;;;;;;;;;;;4.90;99.90;;;;;;4962697;28;19922;-90
2021/12/28 01:14:23;;;;;;;;;;;5.60;99.90;;;;;;4962525;28;20362;-89
2021/12/28 01:16:51;;;;;;;;;;;5.40;99.90;;;;;;4946489;28;19959;-90
2021/12/28 01:19:22;;;;;;;;;;;4.60;99.90;;;;;;4946869;28;19922;-89
2021/12/28 01:21:47;;;;;;;;;;;5.70;99.90;;;;;;4946798;28;20305;-90
2021/12/28 01:24:26;;;;;;;;;;;;;;;;;;;;;
2021/12/28 01:26:51;;;;;;;;;;;4.70;99.90;;;;;;4963907;28;19976;-90
2021/12/28 01:29:19;;;;;;;;;;;5.90;99.90;;;;;;4961346;28;19925;-90
2021/12/28 01:31:47;;;;;;;;;;;4.80;99.90;;;;;;4962021;28;19926;-90
2021/12/28 01:34:38;;;;;;;;;;;4.90;99.90;;;;;;4962790;28;19926;-91
2021/12/28 01:37:04;;;;;;;;;;;4.70;99.90;;;;;;4961989;28;19926;-90
2021/12/28 01:39:43;;;;;;;;;;;5.80;99.90;;;;;;4962039;28;20004;-90
2021/12/28 01:42:33;;;;;;;;;;;6.00;99.90;;;;;;4947301;28;20404;-91
2021/12/28 01:45:02;;;;;;;;;;;5.30;99.90;;;;;;4962074;28;19980;-89
2021/12/28 01:47:48;;;;;;;;;;;4.90;99.90;;;;;;4946643;28;20284;-90
2021/12/28 01:50:13;;;;;;;;;;;5.30;99.90;;;;;;4946596;28;20321;-90
2021/12/28 01:53:00;;;;;;;;;;;5.70;99.90;;;;;;4945525;28;19976;-91
2021/12/28 01:55:27;;;;;;;;;;;6.30;99.90;;;;;;4978052;28;20373;-89
2021/12/28 01:57:55;;;;;;;;;;;5.30;99.90;;;;;;4961948;28;20370;-90
2021/12/28 02:00:26;;;;;;;;;;;5.50;99.90;;;;;;4945686;28;20023;-90
2021/12/28 02:02:56;;;;;;;;;;;5.20;99.90;;;;;;4946287;28;19982;-90
2021/12/28 02:05:27;;;;;;;;;;;6.60;99.90;;;;;;4946063;28;19988;-89
2021/12/28 02:08:08;;;;;;;;;;;5.00;99.90;;;;;;4962309;28;19926;-90
2021/12/28 02:10:43;;;;;;;;;;;6.20;99.90;;;;;;4946458;28;19926;-90
2021/12/28 02:13:14;;;;;;;;;;;5.70;99.90;;;;;;4946573;28;19992;-90
2021/12/28 02:15:42;;;;;;;;;;;6.60;99.90;;;;;;4946090;28;20320;-90
2021/12/28 02:18:11;;;;;;;;;;;6.40;99.90;;;;;;4945634;28;19977;-91
2021/12/28 02:20:36;;;;;;;;;;;6.40;99.90;;;;;;4945030;28;19952;-90
2021/12/28 02:23:07;;;;;;;;;;;6.20;99.90;;;;;;4945252;28;19922;-90
2021/12/28 02:25:41;;;;;;;;;;;5.90;99.90;;;;;;4945849;28;20345;-90
2021/12/28 02:28:07;;;;;;;;;;;5.00;99.90;;;;;;4962982;28;19922;-90
2021/12/28 02:30:53;;;;;;;;;;;6.00;99.90;;;;;;4944960;28;20444;-85
2021/12/28 02:33:29;;;;;;;;;;;5.60;99.90;;;;;;4956818;28;20013;-90
2021/12/28 02:35:58;;;;;;;;;;;5.80;99.90;;;;;;4945665;28;19933;-91
2021/12/28 02:38:39;;;;;;;;;;;;;;;;;;;;;
2021/12/28 02:41:12;;;;;;;;;;;6.30;99.90;;;;;;4962908;28;19988;-90
2021/12/28 02:43:50;;;;;;;;;;;5.70;99.90;;;;;;4962262;28;19929;-90
2021/12/28 02:46:42;;;;;;;;;;;;;;;;;;;;;
2021/12/28 02:49:16;;;;;;;;;;;5.20;99.90;;;;;;4963910;28;20391;-91
2021/12/28 02:51:52;;;;;;;;;;;5.70;99.90;;;;;;4961023;28;20016;-90
2021/12/28 02:54:20;;;;;;;;;;;5.20;99.90;;;;;;4945128;28;19989;-90
2021/12/28 02:56:51;;;;;;;;;;;6.20;99.90;;;;;;4944965;28;20501;-90
2021/12/28 02:59:22;;;;;;;;;;;6.30;99.90;;;;;;4960814;28;19922;-90
2021/12/28 03:01:52;;;;;;;;;;;5.60;99.90;;;;;;4945221;28;19922;-90
2021/12/28 03:04:28;;;;;;;;;;;5.60;99.90;;;;;;4944884;28;19922;-91
2021/12/28 03:07:04;;;;;;;;;;;;;;;;;;;;;
2021/12/28 03:09:48;;;;;;;;;;;;;;;;;;;;;
2021/12/28 03:12:26;;;;;;;;;;;;;;;;;;;;;
2021/12/28 03:14:59;;;;;;;;;;;5.70;99.90;;;;;;4962277;28;19925;-89
2021/12/28 03:17:35;;;;;;;;;;;;;;;;;;;;;
2021/12/28 03:20:21;;;;;;;;;;;6.50;99.90;;;;;;4962010;28;19922;-89
2021/12/28 03:22:49;;;;;;;;;;;5.50;99.90;;;;;;4976436;28;20374;-90
2021/12/28 03:25:28;;;;;;;;;;;;;;;;;;;;;
2021/12/28 03:28:01;;;;;;;;;;;5.80;99.90;;;;;;4962321;28;19926;-91
2021/12/28 03:30:37;;;;;;;;;;;5.80;99.90;;;;;;4961603;28;20052;-90
2021/12/28 03:35:54;;;;;;;;;;;6.60;99.90;;;;;;4963167;28;19925;-90
2021/12/28 03:38:27;;;;;;;;;;;5.60;99.90;;;;;;4961213;28;19922;-90
2021/12/28 03:40:57;;;;;;;;;;;6.50;99.90;;;;;;4945410;28;20004;-90
2021/12/28 03:43:36;;;;;;;;;;;;;;;;;;;;;
2021/12/28 03:46:07;;;;;;;;;;;7.00;99.90;;;;;;4976613;28;19921;-90
2021/12/28 03:48:47;;;;;;;;;;;6.30;99.90;;;;;;4946037;28;19926;-90
2021/12/28 03:51:20;;;;;;;;;;;5.30;99.90;;;;;;4946029;28;19922;-90
2021/12/28 03:54:05;;;;;;;;;;;6.00;99.90;;;;;;4948851;28;19926;-91
2021/12/28 03:56:38;;;;;;;;;;;7.10;99.90;;;;;;4949335;28;19926;-90
2021/12/28 03:59:24;;;;;;;;;;;6.80;99.90;;;;;;4964989;28;19930;-90
2021/12/28 04:01:49;;;;;;;;;;;5.90;99.90;;;;;;4948101;28;19925;-89
2021/12/28 04:04:25;;;;;;;;;;;5.90;99.90;;;;;;4947806;28;20263;-90
2021/12/28 04:06:58;;;;;;;;;;;7.00;99.90;;;;;;4949159;28;19922;-91
2021/12/28 04:12:23;;;;;;;;;;;5.90;99.90;;;;;;4966504;28;19922;-90
2021/12/28 04:15:00;;;;;;;;;;;6.90;99.90;;;;;;4947926;28;19921;-90
2021/12/28 04:17:36;;;;;;;;;;;;;;;;;;;;;
2021/12/28 04:20:09;;;;;;;;;;;5.80;99.90;;;;;;4965047;28;19943;-90
2021/12/28 04:22:37;;;;;;;;;;;7.00;99.90;;;;;;4948243;28;19922;-90
2021/12/28 04:25:03;;;;;;;;;;;6.20;99.90;;;;;;4947917;28;20256;-90
2021/12/28 04:27:59;;;;;;;;;;;;;;;;;;;;;
2021/12/28 04:30:28;;;;;;;;;;;7.10;99.90;;;;;;4979986;28;19921;-90
2021/12/28 04:33:04;;;;;;;;;;;6.10;99.90;;;;;;4965716;28;19926;-91
2021/12/28 04:35:50;;;;;;;;;;;7.20;99.90;;;;;;4954040;28;19933;-90
2021/12/28 04:38:45;;;;;;;;;;;;;;;;;;;;;
2021/12/28 04:41:16;;;;;;;;;;;6.20;99.90;;;;;;4979169;28;19921;-90
2021/12/28 04:43:41;;;;;;;;;;;7.20;99.90;;;;;;4947499;28;19922;-89
2021/12/28 04:46:09;;;;;;;;;;;6.70;99.90;;;;;;4947078;28;19929;-91
2021/12/28 04:48:40;;;;;;;;;;;6.40;99.90;;;;;;4947551;28;19922;-90
2021/12/28 04:51:30;;;;;;;;;;;6.80;99.90;;;;;;4947291;28;19932;-91
2021/12/28 04:54:06;;;;;;;;;;;;;;;;;;;;;
2021/12/28 04:56:33;;;;;;;;;;;6.10;99.90;;;;;;4964049;28;19973;-90
2021/12/28 04:59:01;;;;;;;;;;;6.60;99.90;;;;;;4962847;28;19922;-90
2021/12/28 05:01:36;;;;;;;;;;;5.90;99.90;;;;;;4946977;28;19922;-91
2021/12/28 05:04:06;;;;;;;;;;;6.10;99.90;;;;;;4948035;28;19928;-91
2021/12/28 05:06:35;;;;;;;;;;;6.70;99.90;;;;;;4947103;28;19921;-90
2021/12/28 05:09:01;;;;;;;;;;;6.70;99.90;;;;;;4963022;28;19929;-90
2021/12/28 05:11:34;;;;;;;;;;;5.60;99.90;;;;;;4946803;28;20017;-90
2021/12/28 05:14:15;;;;;;;;;;;6.30;99.90;;;;;;4947515;28;20317;-90
2021/12/28 05:16:43;;;;;;;;;;;6.70;99.90;;;;;;4947483;28;19930;-91
2021/12/28 05:19:08;;;;;;;;;;;6.60;99.90;;;;;;4946948;28;19922;-90
2021/12/28 05:21:49;;;;;;;;;;;6.60;99.90;;;;;;4962355;28;19922;-91
2021/12/28 05:24:17;;;;;;;;;;;6.00;99.90;;;;;;4947621;28;20441;-91
2021/12/28 05:26:52;;;;;;;;;;;5.90;99.90;;;;;;4946962;28;20276;-90
2021/12/28 05:29:25;;;;;;;;;;;6.90;99.90;;;;;;4963298;28;20373;-90
2021/12/28 05:31:53;;;;;;;;;;;6.70;99.90;;;;;;4947493;28;19922;-90
2021/12/28 05:34:19;;;;;;;;;;;6.60;99.90;;;;;;4946378;28;19928;-90
2021/12/28 05:36:47;;;;;;;;;;;6.20;99.90;;;;;;4946627;28;19926;-89
2021/12/28 05:39:32;;;;;;;;;;;7.10;99.90;;;;;;4946403;28;20374;-90
2021/12/28 05:42:09;;;;;;;;;;;6.00;99.90;;;;;;4946389;28;19976;-90
2021/12/28 05:44:45;;;;;;;;;;;;;;;;;;;;;
2021/12/28 05:47:14;;;;;;;;;;;6.60;99.90;;;;;;4963382;28;19922;-91
2021/12/28 05:49:46;;;;;;;;;;;6.00;99.90;;;;;;4946429;28;19928;-90
2021/12/28 05:52:19;;;;;;;;;;;6.00;99.90;;;;;;4962869;28;19925;-89
2021/12/28 05:54:55;;;;;;;;;;;;;;;;;;;;;
2021/12/28 05:57:42;;;;;;;;;;;6.80;99.90;;;;;;4963036;28;19949;-91
2021/12/28 06:00:14;;;;;;;;;;;5.60;99.90;;;;;;4964409;28;19928;-90
2021/12/28 06:02:57;;;;;;;;;;;;;;;;;;;;;
2021/12/28 06:05:56;;;;;;;;;;;;;;;;;;;;;
2021/12/28 06:08:51;;;;;;;;;;;5.50;99.90;;;;;;4975697;28;19921;-91
2021/12/28 06:11:22;;;;;;;;;;;6.00;99.90;;;;;;4946929;28;19922;-91
2021/12/28 06:14:07;;;;;;;;;;;6.20;99.90;;;;;;4961592;28;19929;-90
2021/12/28 06:16:54;;;;;;;;;;;5.70;99.90;;;;;;4957672;28;20401;-91
2021/12/28 06:19:26;;;;;;;;;;;5.80;99.90;;;;;;4963742;28;19973;-91
2021/12/28 06:21:55;;;;;;;;;;;6.10;99.90;;;;;;4945989;28;20008;-90
2021/12/28 06:24:50;;;;;;;;;;;5.50;99.90;;;;;;4961948;28;20078;-90
2021/12/28 06:27:18;;;;;;;;;;;5.50;99.90;;;;;;4961275;28;20421;-91
2021/12/28 06:30:11;;;;;;;;;;;;;;;;;;;;;
2021/12/28 06:32:39;;;;;;;;;;;5.90;99.90;;;;;;4962483;28;19926;-90
2021/12/28 06:35:15;;;;;;;;;;;5.50;99.90;;;;;;4945666;28;19928;-90
2021/12/28 06:37:49;;;;;;;;;;;5.30;99.90;;;;;;4946321;28;19921;-90
2021/12/28 06:40:22;;;;;;;;;;;5.30;99.90;;;;;;4946058;28;19922;-91
2021/12/28 06:43:11;;;;;;;;;;;5.90;99.90;;;;;;4947107;28;20255;-91
2021/12/28 06:48:38;;;;;;;;;;;5.40;99.90;;;;;;4963963;28;19973;-91
2021/12/28 06:51:09;;;;;;;;;;;5.40;99.90;;;;;;4947879;28;19984;-90
2021/12/28 06:53:50;;;;;;;;;;;5.30;99.90;;;;;;4944969;28;19926;-90
2021/12/28 06:56:27;;;;;;;;;;;5.60;99.90;;;;;;4945732;28;19969;-92
2021/12/28 07:01:54;;;;;;;;;;;5.80;99.90;;;;;;4963398;28;20388;-90
2021/12/28 07:04:37;;;;;;;;;;;5.30;99.90;;;;;;4946535;28;19985;-89
2021/12/28 07:07:07;;;;;;;;;;;5.80;99.90;;;;;;4945043;28;19949;-90
2021/12/28 07:09:41;;;;;;;;;;;5.30;99.90;;;;;;4945292;28;19925;-91
2021/12/28 07:12:09;;;;;;;;;;;5.20;99.90;;;;;;4945398;28;20309;-90
2021/12/28 07:14:57;;;;;;;;;;;;;;;;;;;;;
2021/12/28 07:17:32;;;;;;;;;;;6.00;99.90;;;;;;4963347;28;19926;-90
2021/12/28 07:20:10;;;;;;;;;;;;;;;;;;;;;
2021/12/28 07:22:36;;;;;;;;;;;5.30;99.90;;;;;;4961819;28;19925;-90
2021/12/28 07:25:11;;;;;;;;;;;5.30;99.90;;;;;;4944597;28;19922;-90
2021/12/28 07:27:44;;;;;;;;;;;6.00;99.90;;;;;;4948927;28;20378;-90
2021/12/28 07:30:23;;;;;;;;;;;6.10;99.90;;;;;;4964880;28;20008;-91
2021/12/28 07:33:18;;;;;;;;;;;;;;;;;;;;;
2021/12/28 07:36:17;;;;;;;;;;;;;;;;;;;;;
2021/12/28 07:38:43;;;;;;;;;;;5.40;99.90;;;;;;4980960;28;19976;-89
2021/12/28 07:41:31;;;;;;;;;;;5.40;99.90;;;;;;4961363;28;19922;-90
2021/12/28 07:44:17;;;;;;;;;;;5.40;99.90;;;;;;4964695;28;19974;-90
2021/12/28 07:46:53;;;;;;;;;;;5.80;99.90;;;;;;4964030;28;19957;-91
2021/12/28 07:49:23;;;;;;;;;;;5.60;99.90;;;;;;4965603;28;19926;-90
2021/12/28 07:51:54;;;;;;;;;;;5.10;99.90;;;;;;4948511;28;19932;-91
2021/12/28 07:57:29;;;;;;;;;;;6.20;99.90;;;;;;4953464;28;19930;-90
2021/12/28 08:03:13;;;;;;;;;;;5.10;99.90;;;;;;4956878;28;19921;-91
2021/12/28 08:05:54;;;;;;;;;;;6.80;99.90;;;;;;4948808;28;19921;-90
2021/12/28 08:08:29;;;;;;;;;;;6.50;99.90;;;;;;4964936;28;19972;-90
2021/12/28 08:11:15;;;;;;;;;;;6.50;99.90;;;;;;4948112;28;19922;-90
2021/12/28 08:13:41;;;;;;;;;;;4.90;99.90;;;;;;4964008;28;19932;-90
2021/12/28 08:16:17;;;;;;;;;;;;;;;;;;;;;
2021/12/28 08:19:04;;;;;;;;;;;5.90;99.90;;;;;;4964964;28;20420;-90
2021/12/28 08:21:58;;;;;;;;;;;;;;;;;;;;;
2021/12/28 08:24:23;;;;;;;;;;;5.70;99.90;;;;;;4964958;28;19926;-90
2021/12/28 08:26:49;;;;;;;;;;;6.00;99.90;;;;;;4947571;28;20026;-90
2021/12/28 08:29:22;;;;;;;;;;;5.70;99.90;;;;;;4947048;28;19976;-91
2021/12/28 08:32:21;;;;;;;;;;;;;;;;;;;;;
2021/12/28 08:35:04;;;;;;;;;;;;;;;;;;;;;
2021/12/28 08:37:30;;;;;;;;;;;6.30;99.90;;;;;;4964391;28;19929;-92
2021/12/28 08:40:04;;;;;;;;;;;6.50;99.90;;;;;;4947354;28;19922;-92
2021/12/28 08:42:30;;;;;;;;;;;5.50;99.90;;;;;;4948054;28;19922;-91
2021/12/28 08:45:12;;;;;;;;;;;5.80;99.90;;;;;;4948005;28;19922;-91
2021/12/28 08:47:57;;;;;;;;;;;5.70;99.90;;;;;;4965491;28;19926;-91
2021/12/28 08:50:45;;;;;;;;;;;6.80;99.90;;;;;;4948640;28;19928;-91
2021/12/28 08:53:26;;;;;;;;;;;;;;;;;;;;;
2021/12/28 08:55:56;;;;;;;;;;;6.10;99.90;;;;;;4964697;28;19925;-90
2021/12/28 08:58:51;;;;;;;;;;;6.60;99.90;;;;;;4947567;28;20337;-89
2021/12/28 09:01:24;;;;;;;;;;;6.60;99.90;;;;;;4948641;28;19973;-91
2021/12/28 09:03:54;;;;;;;;;;;6.20;99.90;;;;;;4946718;28;19921;-90
2021/12/28 09:06:38;;;;;;;;;;;6.90;99.90;;;;;;4947279;28;19976;-91
2021/12/28 09:09:16;;;;;;;;;;;;;;;;;;;;;
2021/12/28 09:11:44;;;;;;;;;;;6.40;99.90;;;;;;4964179;28;19922;-92
2021/12/28 09:14:30;;;;;;;;;;;;;;;;;;;;;
2021/12/28 09:16:59;;;;;;;;;;;6.40;99.90;;;;;;4964136;28;19925;-92
2021/12/28 09:19:34;;;;;;;;;;;;;;;;;;;;;
2021/12/28 09:22:07;;;;;;;;;;;7.70;99.90;;;;;;4964114;28;20317;-92
2021/12/28 09:24:49;;;;;;;;;;;6.70;99.90;;;;;;4947849;28;20439;-90
2021/12/28 09:27:43;;;;;;;;;;;;;;;;;;;;;
2021/12/28 09:30:25;;;;;;;;;;;7.30;99.90;;;;;;4963586;28;19921;-90
2021/12/28 09:32:53;;;;;;;;;;;6.80;99.90;;;;;;4947568;28;19926;-90
2021/12/28 09:35:42;;;;;;;;;;;6.70;99.90;;;;;;4946866;28;19996;-92
2021/12/28 09:38:29;;;;;;;;;;;;;;;;;;;;;
2021/12/28 09:41:00;;;;;;;;;;;6.90;99.90;;;;;;4965101;28;19922;-91
2021/12/28 09:43:32;;;;;;;;;;;7.00;99.90;;;;;;4947452;28;19921;-91
2021/12/28 09:46:08;;;;;;;;;;;;;;;;;;;;;
2021/12/28 09:48:41;;;;;;;;;;;6.80;99.90;;;;;;4963064;28;20143;-91
2021/12/28 09:51:09;;;;;;;;;;;7.10;99.90;;;;;;4961601;28;19929;-89
2021/12/28 09:53:48;;;;;;;;;;;;;;;;;;;;;
2021/12/28 09:56:40;;;;;;;;;;;6.80;99.90;;;;;;4963771;28;19937;-90
2021/12/28 09:59:16;;;;;;;;;;;;;;;;;;;;;
2021/12/28 10:01:59;;;;;;;;;;;6.80;99.90;;;;;;4963440;28;19922;-91
2021/12/28 10:04:55;;;;;;;;;;;;;;;;;;;;;
2021/12/28 10:07:54;;;;;;;;;;;;;;;;;;;;;
2021/12/28 10:10:25;;;;;;;;;;;7.10;99.90;;;;;;4978174;28;19929;-92
2021/12/28 10:12:52;;;;;;;;;;;7.40;99.90;;;;;;4962143;28;19944;-91
2021/12/28 10:15:38;;;;;;;;;;;7.70;99.90;;;;;;4961472;28;19921;-92
2021/12/28 10:18:34;;;;;;;;;;;;;;;;;;;;;
2021/12/28 10:21:04;;;;;;;;;;;8.40;99.90;;;;;;4961026;28;20021;-90
2021/12/28 10:23:42;;;;;;;;;;;7.20;99.90;;;;;;4946861;28;20259;-90
2021/12/28 10:26:27;;;;;;;;;;;8.00;99.90;;;;;;4945955;28;19929;-90
2021/12/28 10:29:06;;;;;;;;;;;;;;;;;;;;;
2021/12/28 10:31:37;;;;;;;;;;;7.40;99.90;;;;;;4962829;28;19922;-92
2021/12/28 10:34:19;;;;;;;;;;;7.30;99.90;;;;;;4945626;28;19932;-91
2021/12/28 10:37:05;;;;;;;;;;;;;;;;;;;;;
2021/12/28 10:40:12;;;;;;;;;;;8.30;99.90;;;;;;4962467;28;19976;-92
2021/12/28 10:42:57;;;;;;;;;;;7.30;99.90;;;;;;4954581;28;19922;-91
2021/12/28 10:45:41;;;;;;;;;;;;;;;;;;;;;
2021/12/28 10:48:38;;;;;;;;;;;6.60;99.90;;;;;;4963051;28;21261;-90
2021/12/28 10:51:21;;;;;;;;;;;7.40;99.90;;;;;;4974714;28;19961;-90
2021/12/28 10:56:43;;;;;;;;;;;6.90;99.90;;;;;;4981895;28;19929;-90
2021/12/28 10:59:14;;;;;;;;;;;7.40;99.90;;;;;;4959308;28;19922;-90
2021/12/28 11:02:07;;;;;;;;;;;;;;;;;;;;;
2021/12/28 11:04:39;;;;;;;;;;;8.10;99.90;;;;;;4962049;28;19949;-90
2021/12/28 11:07:09;;;;;;;;;;;7.40;99.90;;;;;;4960683;28;20013;-90
2021/12/28 11:09:35;;;;;;;;;;;8.20;99.90;;;;;;4945229;28;19981;-91
2021/12/28 11:12:00;;;;;;;;;;;8.10;99.90;;;;;;4960769;28;19972;-88
2021/12/28 11:14:28;;;;;;;;;;;7.50;99.90;;;;;;4944648;28;19948;-89
2021/12/28 11:17:05;;;;;;;;;;;7.30;99.90;;;;;;4944535;28;20413;-90
2021/12/28 11:19:42;;;;;;;;;;;8.30;99.90;;;;;;4944934;28;19957;-88
2021/12/28 11:22:08;;;;;;;;;;;7.50;99.90;;;;;;4945560;28;19922;-90
2021/12/28 11:24:47;;;;;;;;;;;;;;;;;;;;;
2021/12/28 11:27:44;;;;;;;;;;;8.00;99.90;;;;;;4962151;28;19968;-89
2021/12/28 11:30:34;;;;;;;;;;;7.50;99.90;;;;;;4957713;28;20392;-90
2021/12/28 11:33:25;;;;;;;;;;;7.60;99.90;;;;;;4962631;28;19921;-90
2021/12/28 11:35:53;;;;;;;;;;;7.60;99.90;;;;;;4959683;28;19933;-90
2021/12/28 11:38:19;;;;;;;;;;;8.40;99.90;;;;;;4960750;28;20017;-90
2021/12/28 11:40:45;;;;;;;;;;;7.60;99.90;;;;;;4944587;28;19973;-87
2021/12/28 11:43:38;;;;;;;;;;;8.50;99.90;;;;;;4944375;28;19928;-91
2021/12/28 11:46:11;;;;;;;;;;;8.20;99.90;;;;;;4946129;28;19944;-90
2021/12/28 11:48:53;;;;;;;;;;;;;;;;;;;;;
2021/12/28 11:51:20;;;;;;;;;;;7.70;99.90;;;;;;4960271;28;19925;-90
2021/12/28 11:53:46;;;;;;;;;;;8.60;99.90;;;;;;4944300;28;19930;-91
2021/12/28 11:59:08;;;;;;;;;;;7.50;99.90;;;;;;4956669;28;20008;-90
2021/12/28 12:01:34;;;;;;;;;;;7.70;99.90;;;;;;4944595;28;19926;-90
2021/12/28 12:04:07;;;;;;;;;;;7.70;99.90;;;;;;4976485;28;20271;-92
2021/12/28 12:07:09;;;;;;;;;;;;;;;;;;;;;
2021/12/28 12:10:09;;;;;;;;;;;;;;;;;;;;;
2021/12/28 12:15:36;;;;;;;;;;;;;;;;;;;;;
2021/12/28 12:18:32;;;;;;;;;;;7.70;99.90;;;;;;4965608;28;19977;-92
2021/12/28 12:27:47;;;;;;;;;;;;;;;;;;;;;
2021/12/28 12:30:35;;;;;;;;;;;;;;;;;;;;;
2021/12/28 12:33:13;;;;;;;;;;;7.80;99.90;;;;;;4978037;28;20290;-91
2021/12/28 12:38:55;;;;;;;;;;;7.90;99.90;;;;;;4959982;28;19929;-92
2021/12/28 12:44:35;;;;;;;;;;;8.40;99.90;;;;;;4966235;28;19921;-91
2021/12/28 12:47:07;;;;;;;;;;;8.50;99.90;;;;;;4947115;28;19922;-91
2021/12/28 12:49:46;;;;;;;;;;;8.00;99.90;;;;;;4946841;28;19925;-90
2021/12/28 12:52:35;;;;;;;;;;;8.20;99.90;;;;;;4964464;28;19932;-91
2021/12/28 12:55:14;;;;;;;;;;;;;;;;;;;;;
2021/12/28 12:57:49;;;;;;;;;;;8.00;99.90;;;;;;4965420;28;19925;-91
2021/12/28 13:00:31;;;;;;;;;;;8.50;99.90;;;;;;4963438;28;19922;-90
2021/12/28 13:03:00;;;;;;;;;;;8.00;99.90;;;;;;4964228;28;19921;-90
2021/12/28 13:05:28;;;;;;;;;;;8.00;99.90;;;;;;4963277;28;19996;-89
2021/12/28 13:08:09;;;;;;;;;;;;;;;;;;;;;
2021/12/28 13:10:46;;;;;;;;;;;9.10;99.90;;;;;;4964509;28;19922;-92
2021/12/28 13:13:18;;;;;;;;;;;8.10;99.90;;;;;;4948130;28;19922;-91
2021/12/28 13:16:02;;;;;;;;;;;;;;;;;;;;;
2021/12/28 13:18:36;;;;;;;;;;;8.90;99.90;;;;;;4963807;28;19992;-90
2021/12/28 13:21:04;;;;;;;;;;;8.10;99.90;;;;;;4947221;28;19944;-91
2021/12/28 13:23:57;;;;;;;;;;;8.60;99.90;;;;;;4946029;28;19984;-90
2021/12/28 13:26:33;;;;;;;;;;;;;;;;;;;;;
2021/12/28 13:29:02;;;;;;;;;;;8.10;99.90;;;;;;4964104;28;19929;-89
2021/12/28 13:31:42;;;;;;;;;;;8.10;99.90;;;;;;4962514;28;19964;-91
2021/12/28 13:34:08;;;;;;;;;;;8.00;99.90;;;;;;4947390;28;19968;-90
2021/12/28 13:36:59;;;;;;;;;;;8.50;99.90;;;;;;4946199;28;19977;-89
2021/12/28 13:39:45;;;;;;;;;;;8.00;99.90;;;;;;4948486;28;19929;-90
2021/12/28 13:42:25;;;;;;;;;;;7.90;99.90;;;;;;4961667;28;19942;-90
2021/12/28 13:45:03;;;;;;;;;;;;;;;;;;;;;
2021/12/28 13:47:39;;;;;;;;;;;;;;;;;;;;;
2021/12/28 13:50:22;;;;;;;;;;;;;;;;;;;;;
2021/12/28 13:52:57;;;;;;;;;;;8.10;99.90;;;;;;4963710;28;19972;-89
2021/12/28 13:55:35;;;;;;;;;;;8.10;99.90;;;;;;4946384;28;19922;-90
2021/12/28 13:58:08;;;;;;;;;;;8.00;99.90;;;;;;4946159;28;19933;-91
2021/12/28 14:00:34;;;;;;;;;;;8.60;99.90;;;;;;4962167;28;19936;-91
2021/12/28 14:03:08;;;;;;;;;;;9.20;99.90;;;;;;4946038;28;20313;-90
2021/12/28 14:05:36;;;;;;;;;;;8.50;99.90;;;;;;4946881;28;20013;-90
2021/12/28 14:08:11;;;;;;;;;;;8.90;99.90;;;;;;4945802;28;19922;-90
2021/12/28 14:10:37;;;;;;;;;;;8.50;99.90;;;;;;4946644;28;19925;-89
2021/12/28 14:13:05;;;;;;;;;;;8.50;99.90;;;;;;4961413;28;19922;-89
2021/12/28 14:15:42;;;;;;;;;;;7.20;99.90;;;;;;4945472;28;19922;-88
2021/12/28 14:18:27;;;;;;;;;;;8.10;99.90;;;;;;4945507;28;20337;-89
2021/12/28 14:20:55;;;;;;;;;;;8.00;99.90;;;;;;4977381;28;19977;-89
2021/12/28 14:23:47;;;;;;;;;;;8.20;99.90;;;;;;4961503;28;19971;-89
2021/12/28 14:26:19;;;;;;;;;;;8.10;99.90;;;;;;4956646;28;19922;-90
2021/12/28 14:29:09;;;;;;;;;;;;;;;;;;;;;
2021/12/28 14:32:02;;;;;;;;;;;7.90;99.90;;;;;;4963709;28;19929;-90
2021/12/28 14:34:36;;;;;;;;;;;9.10;99.90;;;;;;4959452;28;20369;-90
2021/12/28 14:37:31;;;;;;;;;;;8.40;99.90;;;;;;4944818;28;19934;-90
2021/12/28 14:40:06;;;;;;;;;;;;;;;;;;;;;
2021/12/28 14:42:42;;;;;;;;;;;;;;;;;;;;;
2021/12/28 14:45:18;;;;;;;;;;;7.10;99.90;;;;;;4962555;28;19921;-89
2021/12/28 14:47:51;;;;;;;;;;;7.80;99.90;;;;;;4960670;28;20008;-89
2021/12/28 14:50:31;;;;;;;;;;;;;;;;;;;;;
2021/12/28 14:53:03;;;;;;;;;;;8.40;99.90;;;;;;4962084;28;20386;-89
2021/12/28 14:55:38;;;;;;;;;;;7.40;99.90;;;;;;4945231;28;19922;-89
2021/12/28 14:58:06;;;;;;;;;;;7.80;99.90;;;;;;4960594;28;19926;-89
2021/12/28 15:00:40;;;;;;;;;;;7.60;99.90;;;;;;4976756;28;19988;-89
2021/12/28 15:03:06;;;;;;;;;;;8.10;99.90;;;;;;4960377;28;19980;-89
2021/12/28 15:05:41;;;;;;;;;;;7.70;99.90;;;;;;4976507;28;19930;-88
2021/12/28 15:08:12;;;;;;;;;;;7.70;99.90;;;;;;4944510;28;19932;-88
2021/12/28 15:10:39;;;;;;;;;;;7.80;99.90;;;;;;4959993;28;20286;-89
2021/12/28 15:13:05;;;;;;;;;;;7.10;99.90;;;;;;4960333;28;20020;-89
2021/12/28 15:15:33;;;;;;;;;;;7.90;99.90;;;;;;4960212;28;19969;-89
2021/12/28 15:17:59;;;;;;;;;;;8.30;99.90;;;;;;4960413;28;20358;-89
2021/12/28 15:20:25;;;;;;;;;;;7.30;99.90;;;;;;4943729;28;19926;-89
2021/12/28 15:22:50;;;;;;;;;;;8.30;99.90;;;;;;4944292;28;19922;-88
2021/12/28 15:25:21;;;;;;;;;;;7.30;99.90;;;;;;4943795;28;20370;-89
2021/12/28 15:27:51;;;;;;;;;;;8.10;99.90;;;;;;4944836;28;19922;-89
2021/12/28 15:30:24;;;;;;;;;;;7.90;99.90;;;;;;4960235;28;19922;-89
2021/12/28 15:32:54;;;;;;;;;;;7.50;99.90;;;;;;4943728;28;19922;-89
2021/12/28 15:35:26;;;;;;;;;;;8.10;99.90;;;;;;4944816;28;20259;-90
2021/12/28 15:37:52;;;;;;;;;;;7.40;99.90;;;;;;4944326;28;20279;-89
2021/12/28 15:40:25;;;;;;;;;;;7.00;99.90;;;;;;4943846;28;19926;-89
2021/12/28 15:42:53;;;;;;;;;;;8.30;99.90;;;;;;4944791;28;20219;-89
2021/12/28 15:45:24;;;;;;;;;;;7.30;99.90;;;;;;4944841;28;19956;-89
2021/12/28 15:47:52;;;;;;;;;;;7.80;99.90;;;;;;4961751;28;19972;-90
2021/12/28 15:50:19;;;;;;;;;;;7.50;99.90;;;;;;4947952;28;19922;-89
2021/12/28 15:52:50;;;;;;;;;;;7.30;99.90;;;;;;4963761;28;20012;-89
2021/12/28 15:55:15;;;;;;;;;;;7.50;99.90;;;;;;4948099;28;19980;-89
2021/12/28 15:57:51;;;;;;;;;;;;;;;;;;;;;
2021/12/28 16:00:20;;;;;;;;;;;7.40;99.90;;;;;;4965554;28;20184;-89
2021/12/28 16:02:46;;;;;;;;;;;7.00;99.90;;;;;;4947645;28;19928;-89
2021/12/28 16:05:24;;;;;;;;;;;;;;;;;;;;;
2021/12/28 16:07:50;;;;;;;;;;;8.00;99.90;;;;;;4965286;28;19922;-89
2021/12/28 16:10:18;;;;;;;;;;;7.60;99.90;;;;;;4947309;28;19968;-89
2021/12/28 16:12:46;;;;;;;;;;;7.50;99.90;;;;;;4948114;28;19921;-90
2021/12/28 16:15:14;;;;;;;;;;;7.40;99.90;;;;;;4947436;28;19922;-89
2021/12/28 16:17:52;;;;;;;;;;;6.80;99.90;;;;;;4947203;28;20396;-90
2021/12/28 16:20:20;;;;;;;;;;;7.40;99.90;;;;;;4948708;28;19921;-89
2021/12/28 16:22:47;;;;;;;;;;;6.80;99.90;;;;;;4947427;28;20247;-90
2021/12/28 16:25:12;;;;;;;;;;;6.50;99.90;;;;;;4963393;28;19922;-90
2021/12/28 16:27:48;;;;;;;;;;;;;;;;;;;;;
2021/12/28 16:30:40;;;;;;;;;;;7.70;99.90;;;;;;4964441;28;19921;-89
2021/12/28 16:33:11;;;;;;;;;;;6.60;99.90;;;;;;4962085;28;20065;-90
2021/12/28 16:35:42;;;;;;;;;;;6.60;99.90;;;;;;4947066;28;19922;-90
2021/12/28 16:38:10;;;;;;;;;;;6.90;99.90;;;;;;4947465;28;19926;-89
2021/12/28 16:40:38;;;;;;;;;;;6.90;99.90;;;;;;4946820;28;19973;-90
2021/12/28 16:43:04;;;;;;;;;;;7.60;99.90;;;;;;4946950;28;19922;-89
2021/12/28 16:45:32;;;;;;;;;;;7.30;99.90;;;;;;4963231;28;19929;-91
2021/12/28 16:48:00;;;;;;;;;;;7.20;99.90;;;;;;4947073;28;19926;-89
2021/12/28 16:50:26;;;;;;;;;;;6.40;99.90;;;;;;4946679;28;19921;-89
2021/12/28 16:52:54;;;;;;;;;;;6.20;99.90;;;;;;4962405;28;19925;-90
2021/12/28 16:55:22;;;;;;;;;;;7.30;99.90;;;;;;4947071;28;20028;-89
2021/12/28 16:57:58;;;;;;;;;;;;;;;;;;;;;
2021/12/28 17:00:28;;;;;;;;;;;7.00;99.90;;;;;;4964168;28;19922;-90
2021/12/28 17:03:00;;;;;;;;;;;7.10;99.90;;;;;;4947090;28;20312;-91
2021/12/28 17:05:27;;;;;;;;;;;6.50;99.90;;;;;;4947232;28;19961;-90
2021/12/28 17:08:14;;;;;;;;;;;6.20;99.90;;;;;;4946411;28;20382;-90